Time;durP1;ratioP1;P1;durP2;ratioP2;P2;SDS_P1;SDS_P2;PMS_P1;PMS_P2;Temp;Humidity;BMP_temperature;BMP_pressure;BME280_temperature;BME280_humidity;BME280_pressure;Samples;Min_cycle;Max_cycle;Signal;HPM_P1;HPM_P2
2021/12/11 00:01:24;;;;;;;13.63;10.80;;;4.10;99.90;;;;;;5071359;28;20240;-74
2021/12/11 00:03:57;;;;;;;12.32;11.05;;;4.10;99.90;;;;;;5071451;28;20210;-74
2021/12/11 00:06:27;;;;;;;10.63;9.43;;;4.10;99.90;;;;;;5071291;28;20648;-74
2021/12/11 00:08:57;;;;;;;12.02;8.95;;;4.10;99.90;;;;;;5053416;28;20514;-75
2021/12/11 00:11:34;;;;;;;15.10;10.40;;;4.00;99.90;;;;;;5053427;28;20531;-74
2021/12/11 00:14:03;;;;;;;11.23;8.95;;;4.00;99.90;;;;;;5071329;28;20178;-75
2021/12/11 00:16:32;;;;;;;12.02;10.15;;;4.00;99.90;;;;;;5053333;28;20164;-75
2021/12/11 00:19:03;;;;;;;14.98;9.10;;;4.00;99.90;;;;;;5070796;28;20176;-75
2021/12/11 00:21:30;;;;;;;12.40;10.07;;;4.00;99.90;;;;;;5053167;28;20639;-74
2021/12/11 00:23:59;;;;;;;11.23;9.00;;;3.90;99.90;;;;;;5053109;28;20204;-73
2021/12/11 00:26:29;;;;;;;11.30;9.50;;;3.90;99.90;;;;;;5074378;28;20210;-74
2021/12/11 00:28:55;;;;;;;12.57;11.18;;;3.90;99.90;;;;;;5074968;28;20542;-74
2021/12/11 00:31:25;;;;;;;12.57;11.25;;;3.90;99.90;;;;;;5075072;28;20183;-74
2021/12/11 00:33:53;;;;;;;16.30;12.57;;;3.80;99.90;;;;;;5057125;28;20247;-74
2021/12/11 00:36:23;;;;;;;15.35;12.20;;;3.80;99.90;;;;;;5057279;28;20169;-74
2021/12/11 00:38:50;;;;;;;15.52;10.88;;;3.80;99.90;;;;;;5074907;28;20164;-74
2021/12/11 00:41:20;;;;;;;13.90;10.27;;;3.80;99.90;;;;;;5040523;28;20837;-74
2021/12/11 00:43:48;;;;;;;15.40;11.90;;;3.80;99.90;;;;;;5075009;28;20164;-75
2021/12/11 00:46:22;;;;;;;14.18;11.10;;;3.80;99.90;;;;;;5074809;28;20172;-74
2021/12/11 00:48:47;;;;;;;13.65;11.65;;;3.80;99.90;;;;;;5074674;28;20202;-75
2021/12/11 00:51:17;;;;;;;13.07;10.53;;;3.80;99.90;;;;;;5074907;28;20184;-75
2021/12/11 00:53:46;;;;;;;15.13;10.95;;;3.80;99.90;;;;;;5074861;28;20167;-75
2021/12/11 00:56:23;;;;;;;14.32;10.57;;;3.80;99.90;;;;;;5056843;28;20189;-75
2021/12/11 00:58:55;;;;;;;12.40;10.80;;;3.80;99.90;;;;;;5040219;28;20698;-75
2021/12/11 01:01:28;;;;;;;15.20;10.93;;;3.80;99.90;;;;;;5074675;28;20501;-75
2021/12/11 01:04:09;;;;;;;15.52;10.90;;;3.80;99.90;;;;;;5074253;28;20172;-75
2021/12/11 01:06:41;;;;;;;13.82;10.98;;;3.80;99.90;;;;;;5074760;28;20172;-75
2021/12/11 01:09:14;;;;;;;14.43;9.98;;;3.80;99.90;;;;;;5074255;28;20203;-75
2021/12/11 01:11:46;;;;;;;14.70;10.90;;;3.80;99.90;;;;;;5056611;28;20397;-75
2021/12/11 01:14:40;;;;;;;12.55;10.50;;;3.80;99.90;;;;;;5074333;28;20524;-75
2021/12/11 01:17:13;;;;;;;17.33;12.77;;;3.80;99.90;;;;;;5072495;28;20191;-75
2021/12/11 01:19:44;;;;;;;17.00;13.20;;;3.80;99.90;;;;;;5074229;28;20172;-75
2021/12/11 01:22:32;;;;;;;16.88;12.65;;;3.80;99.90;;;;;;5056537;28;20233;-74
2021/12/11 01:25:04;;;;;;;16.15;12.38;;;3.80;99.90;;;;;;5074372;28;20271;-75
2021/12/11 01:27:30;;;;;;;18.63;12.60;;;3.80;99.90;;;;;;5074043;28;20566;-75
2021/12/11 01:29:59;;;;;;;27.08;17.00;;;3.90;99.90;;;;;;5073986;28;20242;-75
2021/12/11 01:32:30;;;;;;;21.45;14.32;;;3.90;99.90;;;;;;5074000;28;20250;-74
2021/12/11 01:34:58;;;;;;;19.58;14.70;;;4.00;99.90;;;;;;5056145;28;20188;-74
2021/12/11 01:37:24;;;;;;;29.23;17.20;;;4.10;99.90;;;;;;5074203;28;20339;-74
2021/12/11 01:39:51;;;;;;;39.17;21.35;;;4.20;99.90;;;;;;5073793;28;20697;-74
2021/12/11 01:42:22;;;;;;;30.45;19.23;;;4.30;99.90;;;;;;5074116;28;20515;-74
2021/12/11 01:44:51;;;;;;;30.85;19.75;;;4.30;99.90;;;;;;5074077;28;20215;-77
2021/12/11 01:47:26;;;;;;;34.15;19.15;;;4.40;99.90;;;;;;5073774;28;20659;-77
2021/12/11 01:49:55;;;;;;;32.40;19.23;;;4.50;99.90;;;;;;5072891;28;20223;-77
2021/12/11 01:52:37;;;;;;;34.90;19.00;;;4.50;99.90;;;;;;5056062;28;20485;-78
2021/12/11 01:55:17;;;;;;;29.73;18.02;;;4.60;99.90;;;;;;5073569;28;20184;-78
2021/12/11 01:57:49;;;;;;;30.38;17.52;;;4.70;99.90;;;;;;5073630;28;20262;-78
2021/12/11 02:00:22;;;;;;;34.83;20.98;;;4.70;99.90;;;;;;5038595;28;20192;-76
2021/12/11 02:02:53;;;;;;;28.30;17.90;;;4.80;99.90;;;;;;5073499;28;20168;-77
2021/12/11 02:05:24;;;;;;;31.33;19.23;;;4.90;99.90;;;;;;5073327;28;20196;-76
2021/12/11 02:07:54;;;;;;;34.38;20.83;;;4.90;99.90;;;;;;5073492;28;20181;-77
2021/12/11 02:10:33;;;;;;;26.83;19.27;;;5.00;99.90;;;;;;5072769;28;20219;-77
2021/12/11 02:12:59;;;;;;;28.60;18.00;;;5.00;99.90;;;;;;5055276;28;20217;-77
2021/12/11 02:15:33;;;;;;;31.48;20.42;;;5.10;99.90;;;;;;5072743;28;20264;-77
2021/12/11 02:18:20;;;;;;;27.83;18.15;;;5.10;99.90;;;;;;5055587;28;20220;-78
2021/12/11 02:20:59;;;;;;;24.88;16.92;;;5.20;99.90;;;;;;5054879;28;20164;-78
2021/12/11 02:23:27;;;;;;;25.58;16.42;;;5.20;99.90;;;;;;5073047;28;20202;-77
2021/12/11 02:25:59;;;;;;;31.80;18.38;;;5.20;99.90;;;;;;5054782;28;20569;-78
2021/12/11 02:28:27;;;;;;;29.23;18.55;;;5.30;99.90;;;;;;5055478;28;20169;-77
2021/12/11 02:31:06;;;;;;;33.05;19.83;;;5.30;99.90;;;;;;5054943;28;20196;-78
2021/12/11 02:34:09;;;;;;;30.27;20.75;;;5.30;99.90;;;;;;5054876;28;20164;-77
2021/12/11 02:36:45;;;;;;;26.75;18.10;;;5.40;99.90;;;;;;5042934;28;20725;-77
2021/12/11 02:39:30;;;;;;;31.17;21.70;;;5.50;99.90;;;;;;5059438;28;20187;-77
2021/12/11 02:42:17;;;;;;;30.60;20.20;;;5.50;99.90;;;;;;5055059;28;20176;-78
2021/12/11 02:45:10;;;;;;;28.70;18.83;;;5.60;99.90;;;;;;5072052;28;20674;-78
2021/12/11 02:47:42;;;;;;;29.25;19.48;;;5.60;99.90;;;;;;5044827;28;20184;-78
2021/12/11 02:50:23;;;;;;;27.95;19.48;;;5.60;99.90;;;;;;5071993;28;20844;-77
2021/12/11 02:52:59;;;;;;;34.15;22.48;;;5.70;99.90;;;;;;5072310;28;20624;-78
2021/12/11 02:55:43;;;;;;;27.52;19.80;;;5.70;99.90;;;;;;5072177;28;20880;-77
2021/12/11 02:58:16;;;;;;;27.15;19.73;;;5.70;99.90;;;;;;5072519;28;20636;-77
2021/12/11 03:00:57;;;;;;;30.05;19.08;;;5.80;99.90;;;;;;5071606;28;20173;-76
2021/12/11 03:03:29;;;;;;;30.00;19.42;;;5.80;99.90;;;;;;5054442;28;20714;-77
2021/12/11 03:06:04;;;;;;;27.50;20.25;;;5.80;99.90;;;;;;5054509;28;20188;-77
2021/12/11 03:08:30;;;;;;;27.80;19.33;;;5.90;99.90;;;;;;5054056;28;20171;-77
2021/12/11 03:11:00;;;;;;;30.77;22.10;;;5.90;99.90;;;;;;5072037;28;20207;-77
2021/12/11 03:13:27;;;;;;;29.13;21.65;;;5.90;99.90;;;;;;5053615;28;20617;-78
2021/12/11 03:15:54;;;;;;;24.80;18.90;;;5.90;99.90;;;;;;5053907;28;20200;-77
2021/12/11 03:18:20;;;;;;;27.60;21.95;;;6.00;99.90;;;;;;5072286;28;20251;-77
2021/12/11 03:20:48;;;;;;;30.40;20.83;;;6.00;99.90;;;;;;5071704;28;20251;-77
2021/12/11 03:23:15;;;;;;;26.00;18.58;;;6.00;99.90;;;;;;5071801;28;20533;-77
2021/12/11 03:25:41;;;;;;;23.85;17.63;;;6.00;99.90;;;;;;5071955;28;20188;-78
2021/12/11 03:28:10;;;;;;;26.90;18.27;;;6.00;99.90;;;;;;5072346;28;20171;-78
2021/12/11 03:30:41;;;;;;;30.27;19.33;;;6.00;99.90;;;;;;5053548;28;20568;-78
2021/12/11 03:33:12;;;;;;;25.77;18.15;;;6.00;99.90;;;;;;5071768;28;20171;-78
2021/12/11 03:35:39;;;;;;;26.98;20.30;;;6.10;99.90;;;;;;5072273;28;20224;-78
2021/12/11 03:38:05;;;;;;;25.65;17.80;;;6.10;99.90;;;;;;5054280;28;20574;-78
2021/12/11 03:40:31;;;;;;;26.23;18.33;;;6.10;99.90;;;;;;5071597;28;20528;-75
2021/12/11 03:42:59;;;;;;;30.67;20.88;;;6.10;99.90;;;;;;5071352;28;20172;-78
2021/12/11 03:45:32;;;;;;;27.98;19.13;;;6.10;99.90;;;;;;5072580;28;20211;-78
2021/12/11 03:48:06;;;;;;;27.40;18.52;;;6.10;99.90;;;;;;5071849;28;20184;-78
2021/12/11 03:50:32;;;;;;;26.30;17.65;;;6.20;99.90;;;;;;5053583;28;20555;-78
2021/12/11 03:52:58;;;;;;;28.10;19.85;;;6.20;99.90;;;;;;5053287;28;20178;-77
2021/12/11 03:55:32;;;;;;;25.70;18.70;;;6.20;99.90;;;;;;5073411;28;20184;-76
2021/12/11 03:58:00;;;;;;;26.45;19.98;;;6.20;99.90;;;;;;5074636;28;20165;-75
2021/12/11 04:00:41;;;;;;;25.27;19.85;;;6.20;99.90;;;;;;5076105;28;20179;-78
2021/12/11 04:03:09;;;;;;;21.58;18.00;;;6.20;99.90;;;;;;5044355;28;20183;-75
2021/12/11 04:05:38;;;;;;;25.45;19.80;;;6.20;99.90;;;;;;5082254;28;20210;-77
2021/12/11 04:08:07;;;;;;;25.80;18.40;;;6.30;99.90;;;;;;5056548;28;20161;-77
2021/12/11 04:10:33;;;;;;;26.15;19.60;;;6.20;99.90;;;;;;5059883;28;20239;-76
2021/12/11 04:13:04;;;;;;;27.75;18.98;;;6.30;99.90;;;;;;5076133;28;20208;-76
2021/12/11 04:15:30;;;;;;;30.13;22.20;;;6.30;99.90;;;;;;5072343;28;20252;-77
2021/12/11 04:17:56;;;;;;;26.37;18.77;;;6.30;99.90;;;;;;5054658;28;20152;-76
2021/12/11 04:20:25;;;;;;;29.52;21.00;;;6.30;99.90;;;;;;5073447;28;20744;-77
2021/12/11 04:22:52;;;;;;;29.17;20.60;;;6.30;99.90;;;;;;5054867;28;20172;-76
2021/12/11 04:25:21;;;;;;;24.48;19.77;;;6.30;99.90;;;;;;5072591;28;20191;-77
2021/12/11 04:27:48;;;;;;;26.95;20.63;;;6.30;99.90;;;;;;5072356;28;20168;-77
2021/12/11 04:30:17;;;;;;;25.92;19.90;;;6.40;99.90;;;;;;5071678;28;20203;-77
2021/12/11 04:32:44;;;;;;;27.60;21.33;;;6.40;99.90;;;;;;5071777;28;20161;-77
2021/12/11 04:35:12;;;;;;;23.35;19.23;;;6.40;99.90;;;;;;5053406;28;20199;-78
2021/12/11 04:37:38;;;;;;;24.88;18.15;;;6.40;99.90;;;;;;5053729;28;20221;-77
2021/12/11 04:40:27;;;;;;;25.85;19.38;;;6.40;99.90;;;;;;5071024;28;20259;-77
2021/12/11 04:45:33;;;;;;;28.42;18.13;;;6.40;99.90;;;;;;5071106;28;20212;-77
2021/12/11 04:48:08;;;;;;;24.45;19.20;;;6.50;99.90;;;;;;5053479;28;20164;-77
2021/12/11 04:56:22;;;;;;;25.95;17.70;;;6.50;99.90;;;;;;5052941;28;20243;-77
2021/12/11 04:58:58;;;;;;;27.45;18.40;;;6.50;99.90;;;;;;5035576;28;20597;-77
2021/12/11 05:01:47;;;;;;;27.58;20.17;;;6.50;99.90;;;;;;5053166;28;20161;-77
2021/12/11 05:07:07;;;;;;;26.55;18.85;;;6.50;99.90;;;;;;5013356;28;20192;-77
2021/12/11 05:09:39;;;;;;;25.42;18.35;;;6.50;99.90;;;;;;5058335;28;20201;-78
2021/12/11 05:12:16;;;;;;;28.42;20.20;;;6.50;99.90;;;;;;5071264;28;20686;-77
2021/12/11 05:14:44;;;;;;;22.63;18.77;;;6.50;99.90;;;;;;5063441;28;20192;-77
2021/12/11 05:17:11;;;;;;;25.73;19.63;;;6.60;99.90;;;;;;5074585;28;20258;-77
2021/12/11 05:19:37;;;;;;;24.90;20.00;;;6.50;99.90;;;;;;5041232;28;20181;-78
2021/12/11 05:22:05;;;;;;;31.00;21.05;;;6.50;99.90;;;;;;5064781;28;20169;-77
2021/12/11 05:24:32;;;;;;;26.98;20.25;;;6.50;99.90;;;;;;5052354;28;20188;-76
2021/12/11 05:26:58;;;;;;;25.75;20.10;;;6.50;99.90;;;;;;5051623;28;20173;-77
2021/12/11 05:29:24;;;;;;;24.42;19.20;;;6.40;99.90;;;;;;5034837;28;20218;-78
2021/12/11 05:31:50;;;;;;;22.30;18.47;;;6.40;99.90;;;;;;5043956;28;20256;-77
2021/12/11 05:34:15;;;;;;;28.13;20.63;;;6.40;99.90;;;;;;5045330;28;20197;-78
2021/12/11 05:36:44;;;;;;;25.92;19.10;;;6.40;99.90;;;;;;5070629;28;20221;-78
2021/12/11 05:39:13;;;;;;;29.35;20.70;;;6.40;99.90;;;;;;5059907;28;20250;-77
2021/12/11 05:41:40;;;;;;;28.63;20.75;;;6.40;99.90;;;;;;5045146;28;20584;-78
2021/12/11 05:44:09;;;;;;;28.73;20.58;;;6.40;99.90;;;;;;5050555;28;20177;-78
2021/12/11 05:46:35;;;;;;;27.60;19.08;;;6.40;99.90;;;;;;5063909;28;20528;-78
2021/12/11 05:49:01;;;;;;;28.13;21.10;;;6.40;99.90;;;;;;5065435;28;20172;-77
2021/12/11 05:51:27;;;;;;;27.08;20.35;;;6.50;99.90;;;;;;5073703;28;20172;-77
2021/12/11 05:53:59;;;;;;;27.95;20.85;;;6.50;99.90;;;;;;5055332;28;20208;-77
2021/12/11 05:56:25;;;;;;;28.40;22.27;;;6.50;99.90;;;;;;5055683;28;20163;-77
2021/12/11 06:01:22;;;;;;;30.05;20.17;;;6.50;99.90;;;;;;5073488;28;20183;-77
2021/12/11 06:03:49;;;;;;;24.20;19.67;;;6.60;99.90;;;;;;5073353;28;20218;-77
2021/12/11 06:06:15;;;;;;;26.45;20.20;;;6.60;99.90;;;;;;5055362;28;20219;-77
2021/12/11 06:08:41;;;;;;;28.17;19.67;;;6.60;99.90;;;;;;5055134;28;20644;-77
2021/12/11 06:11:08;;;;;;;28.15;21.95;;;6.60;99.90;;;;;;5038628;28;20630;-77
2021/12/11 06:13:34;;;;;;;32.58;21.13;;;6.60;99.90;;;;;;5073187;28;20274;-78
2021/12/11 06:16:02;;;;;;;28.00;20.35;;;6.60;99.90;;;;;;5055434;28;20183;-78
2021/12/11 06:18:28;;;;;;;30.45;21.02;;;6.60;99.90;;;;;;5055059;28;20164;-77
2021/12/11 06:20:54;;;;;;;33.07;21.53;;;6.60;99.90;;;;;;5055585;28;20243;-78
2021/12/11 06:23:22;;;;;;;28.13;20.25;;;6.60;99.90;;;;;;5053514;28;20668;-78
2021/12/11 06:25:49;;;;;;;31.85;22.05;;;6.60;99.90;;;;;;5073236;28;20199;-77
2021/12/11 06:28:14;;;;;;;25.70;18.15;;;6.70;99.90;;;;;;5073097;28;20529;-77
2021/12/11 06:30:41;;;;;;;34.37;20.70;;;6.70;99.90;;;;;;5072684;28;20208;-77
2021/12/11 06:33:07;;;;;;;30.60;21.98;;;6.70;99.90;;;;;;5054877;28;20563;-77
2021/12/11 06:35:33;;;;;;;28.83;20.55;;;6.70;99.90;;;;;;5072847;28;20685;-78
2021/12/11 06:37:59;;;;;;;28.00;21.23;;;6.70;99.90;;;;;;5072749;28;20160;-78
2021/12/11 06:40:26;;;;;;;30.83;21.17;;;6.70;99.90;;;;;;5072678;28;20164;-77
2021/12/11 06:42:53;;;;;;;30.90;21.33;;;6.70;99.90;;;;;;5072766;28;20200;-77
2021/12/11 06:45:21;;;;;;;30.00;20.10;;;6.70;99.90;;;;;;5073057;28;20200;-77
2021/12/11 06:47:47;;;;;;;28.45;20.20;;;6.70;99.90;;;;;;5072782;28;20160;-77
2021/12/11 06:50:14;;;;;;;32.33;22.05;;;6.70;99.90;;;;;;5073144;28;20294;-77
2021/12/11 06:52:42;;;;;;;26.17;19.52;;;6.70;99.90;;;;;;5072611;28;20185;-77
2021/12/11 06:55:08;;;;;;;27.52;20.83;;;6.70;99.90;;;;;;5072736;28;20276;-77
2021/12/11 06:57:34;;;;;;;29.95;21.08;;;6.70;99.90;;;;;;5055618;28;20180;-77
2021/12/11 07:00:01;;;;;;;30.30;21.50;;;6.80;99.90;;;;;;5054383;28;20216;-77
2021/12/11 07:02:27;;;;;;;28.20;20.75;;;6.80;99.90;;;;;;5072102;28;20623;-77
2021/12/11 07:04:55;;;;;;;31.73;20.33;;;6.80;99.90;;;;;;5038681;28;20227;-76
2021/12/11 07:07:25;;;;;;;28.38;19.17;;;6.80;99.90;;;;;;5072381;28;20567;-77
2021/12/11 07:09:52;;;;;;;25.90;18.80;;;6.80;99.90;;;;;;5071788;28;20203;-77
2021/12/11 07:12:19;;;;;;;33.67;20.75;;;6.80;99.90;;;;;;5072286;28;20172;-77
2021/12/11 07:14:46;;;;;;;30.08;22.15;;;6.90;99.90;;;;;;5071838;28;20188;-77
2021/12/11 07:17:13;;;;;;;31.20;23.20;;;6.80;99.90;;;;;;5054323;28;20168;-77
2021/12/11 07:19:39;;;;;;;26.73;19.65;;;6.90;99.90;;;;;;5071375;28;20689;-77
2021/12/11 07:22:06;;;;;;;29.30;20.10;;;6.90;99.90;;;;;;5072186;28;20168;-77
2021/12/11 07:24:38;;;;;;;26.67;20.52;;;6.90;99.90;;;;;;5071665;28;20180;-77
2021/12/11 07:27:07;;;;;;;29.08;19.42;;;6.90;99.90;;;;;;5072080;28;20175;-77
2021/12/11 07:29:33;;;;;;;25.45;19.08;;;6.90;99.90;;;;;;5053492;28;20204;-77
2021/12/11 07:31:59;;;;;;;27.95;19.05;;;6.90;99.90;;;;;;5054082;28;20169;-77
2021/12/11 07:34:25;;;;;;;27.98;19.13;;;7.00;99.90;;;;;;5071107;28;20176;-77
2021/12/11 07:36:51;;;;;;;27.27;19.67;;;7.00;99.90;;;;;;5071847;28;20167;-77
2021/12/11 07:39:19;;;;;;;28.73;19.30;;;7.00;99.90;;;;;;5053200;28;20200;-77
2021/12/11 07:41:47;;;;;;;24.50;18.17;;;7.00;99.90;;;;;;5071876;28;20164;-77
2021/12/11 07:44:13;;;;;;;28.80;19.20;;;7.00;99.90;;;;;;5071194;28;20207;-77
2021/12/11 07:46:39;;;;;;;25.65;17.27;;;7.10;99.90;;;;;;5089418;22;20212;-80
2021/12/11 07:49:06;;;;;;;24.67;17.13;;;7.10;99.90;;;;;;5065865;28;20161;-82
2021/12/11 07:51:34;;;;;;;24.42;17.45;;;7.10;99.90;;;;;;5066886;28;20189;-81
2021/12/11 07:54:01;;;;;;;28.27;19.45;;;7.10;99.90;;;;;;5074687;28;20173;-81
2021/12/11 07:56:27;;;;;;;26.50;18.77;;;7.20;99.90;;;;;;5075259;28;20193;-81
2021/12/11 07:58:57;;;;;;;26.58;18.80;;;7.20;99.90;;;;;;5075374;28;20201;-81
2021/12/11 08:01:24;;;;;;;27.77;19.20;;;7.20;99.90;;;;;;5058347;28;20165;-81
2021/12/11 08:03:50;;;;;;;28.05;20.42;;;7.30;99.90;;;;;;5072199;28;20608;-82
2021/12/11 08:06:16;;;;;;;25.70;19.30;;;7.30;99.90;;;;;;5070361;28;20211;-81
2021/12/11 08:08:44;;;;;;;30.13;20.23;;;7.30;99.90;;;;;;5065385;28;20165;-82
2021/12/11 08:11:13;;;;;;;29.58;21.42;;;7.30;99.90;;;;;;5058600;28;20621;-82
2021/12/11 08:13:44;;;;;;;26.13;18.55;;;7.40;99.90;;;;;;5055963;28;20192;-82
2021/12/11 08:16:12;;;;;;;24.08;18.35;;;7.40;99.90;;;;;;5056300;28;20272;-82
2021/12/11 08:18:38;;;;;;;28.00;21.15;;;7.40;99.90;;;;;;5043333;28;20188;-82
2021/12/11 08:21:05;;;;;;;25.60;19.40;;;7.40;99.90;;;;;;5061304;28;20165;-81
2021/12/11 08:23:31;;;;;;;29.30;19.50;;;7.40;99.90;;;;;;5055877;28;20583;-81
2021/12/11 08:25:58;;;;;;;28.97;18.90;;;7.50;99.90;;;;;;5056385;28;20562;-83
2021/12/11 08:28:30;;;;;;;25.35;19.58;;;7.40;99.90;;;;;;5059279;28;20955;-81
2021/12/11 08:30:58;;;;;;;25.70;19.58;;;7.40;99.90;;;;;;5058526;28;20559;-82
2021/12/11 08:33:25;;;;;;;26.13;18.48;;;7.40;99.90;;;;;;5059440;28;20165;-81
2021/12/11 08:35:53;;;;;;;28.95;18.92;;;7.40;99.90;;;;;;5058028;28;20189;-80
2021/12/11 08:38:19;;;;;;;27.15;17.67;;;7.50;99.90;;;;;;5057065;28;20173;-81
2021/12/11 08:40:50;;;;;;;30.95;21.70;;;7.50;99.90;;;;;;5041296;28;20181;-81
2021/12/11 08:43:18;;;;;;;28.67;19.95;;;7.40;99.90;;;;;;5064491;28;20247;-81
2021/12/11 08:45:48;;;;;;;28.92;20.02;;;7.40;99.90;;;;;;5066025;28;20208;-81
2021/12/11 08:48:20;;;;;;;28.35;18.40;;;7.40;99.90;;;;;;5067167;28;20177;-81
2021/12/11 08:50:49;;;;;;;28.67;19.42;;;7.50;99.90;;;;;;5064323;28;20256;-81
2021/12/11 08:53:16;;;;;;;26.33;20.10;;;7.50;99.90;;;;;;5065929;28;20633;-82
2021/12/11 08:55:46;;;;;;;32.35;20.58;;;7.50;99.90;;;;;;5065658;28;20189;-81
2021/12/11 08:58:15;;;;;;;27.67;18.73;;;7.50;99.90;;;;;;5068015;28;20169;-81
2021/12/11 09:00:54;;;;;;;32.83;20.48;;;7.50;99.90;;;;;;5064520;28;20173;-81
2021/12/11 09:03:41;;;;;;;26.73;17.77;;;7.60;99.90;;;;;;5067311;28;20234;-81
2021/12/11 09:06:07;;;;;;;29.58;20.05;;;7.60;99.90;;;;;;5063799;28;20193;-81
2021/12/11 09:08:39;;;;;;;30.83;21.27;;;7.60;99.90;;;;;;5061516;28;20894;-81
2021/12/11 09:11:23;;;;;;;27.98;18.77;;;7.60;99.90;;;;;;5064830;28;20606;-82
2021/12/11 09:14:01;;;;;;;29.00;21.05;;;7.60;99.90;;;;;;5064130;28;20165;-81
2021/12/11 09:16:32;;;;;;;30.83;20.92;;;7.60;99.90;;;;;;5062946;28;20215;-81
2021/12/11 09:19:01;;;;;;;27.38;17.67;;;7.60;99.90;;;;;;5065133;28;20161;-81
2021/12/11 09:21:32;;;;;;;32.17;22.42;;;7.60;99.90;;;;;;5065593;28;20173;-82
2021/12/11 09:24:06;;;;;;;31.20;21.30;;;7.50;99.90;;;;;;5063615;28;20177;-81
2021/12/11 09:26:56;;;;;;;30.77;20.90;;;7.40;99.90;;;;;;5065616;28;20193;-81
2021/12/11 09:29:32;;;;;;;36.90;22.15;;;7.30;99.90;;;;;;5048252;28;20197;-81
2021/12/11 09:32:04;;;;;;;27.98;20.70;;;7.20;99.90;;;;;;5063889;28;20171;-81
2021/12/11 09:34:38;;;;;;;31.52;20.30;;;7.10;99.90;;;;;;5063041;28;20505;-81
2021/12/11 09:37:06;;;;;;;30.20;22.00;;;7.00;99.90;;;;;;5058458;28;20192;-81
2021/12/11 09:39:45;;;;;;;27.80;21.13;;;6.90;99.90;;;;;;5043643;28;20291;-81
2021/12/11 09:42:11;;;;;;;26.25;18.80;;;6.90;99.90;;;;;;5058788;28;20172;-82
2021/12/11 09:44:43;;;;;;;31.70;20.97;;;6.80;99.90;;;;;;5061270;28;20181;-81
2021/12/11 09:47:34;;;;;;;34.70;21.15;;;6.80;99.90;;;;;;5050271;28;20213;-81
2021/12/11 09:50:08;;;;;;;33.92;21.65;;;6.80;99.90;;;;;;5047647;28;20200;-82
2021/12/11 09:52:39;;;;;;;26.35;17.95;;;6.70;99.90;;;;;;5057311;28;20171;-81
2021/12/11 09:55:22;;;;;;;31.17;19.75;;;6.70;99.90;;;;;;5052646;28;20166;-82
2021/12/11 09:57:54;;;;;;;32.85;19.98;;;6.60;99.90;;;;;;5053763;28;20158;-81
2021/12/11 10:00:23;;;;;;;30.13;19.25;;;6.60;99.90;;;;;;5047081;28;20178;-82
2021/12/11 10:02:49;;;;;;;33.22;21.80;;;6.50;99.90;;;;;;5039725;28;20178;-81
2021/12/11 10:05:44;;;;;;;30.35;20.45;;;6.50;99.90;;;;;;5045101;28;20529;-82
2021/12/11 10:08:37;;;;;;;25.80;17.92;;;6.50;99.90;;;;;;5045171;28;20233;-80
2021/12/11 10:11:11;;;;;;;28.40;20.10;;;6.50;99.90;;;;;;5043163;28;20197;-82
2021/12/11 10:14:03;;;;;;;30.00;18.80;;;6.60;99.90;;;;;;5050907;28;20170;-81
2021/12/11 10:16:36;;;;;;;27.33;18.58;;;6.60;99.90;;;;;;5049874;28;20608;-81
2021/12/11 10:19:03;;;;;;;26.25;17.73;;;6.60;99.90;;;;;;5042590;28;20186;-82
2021/12/11 10:21:42;;;;;;;34.85;21.77;;;6.60;99.90;;;;;;5055722;28;20549;-80
2021/12/11 10:24:14;;;;;;;29.80;19.85;;;6.50;99.90;;;;;;5022244;28;20176;-82
2021/12/11 10:26:41;;;;;;;27.65;18.67;;;6.50;99.90;;;;;;5041023;28;20193;-81
2021/12/11 10:29:10;;;;;;;26.23;18.77;;;6.50;99.90;;;;;;5047650;28;20648;-82
2021/12/11 10:31:47;;;;;;;29.23;18.77;;;6.50;99.90;;;;;;5047011;28;20579;-82
2021/12/11 10:34:17;;;;;;;23.20;16.75;;;6.50;99.90;;;;;;5039840;28;20177;-82
2021/12/11 10:36:55;;;;;;;25.45;17.02;;;6.60;99.90;;;;;;5053591;28;20725;-81
2021/12/11 10:39:22;;;;;;;20.85;15.75;;;6.60;99.90;;;;;;5057280;28;20165;-81
2021/12/11 10:41:48;;;;;;;23.52;16.10;;;6.60;99.90;;;;;;5057682;28;20169;-81
2021/12/11 10:44:24;;;;;;;29.20;16.77;;;6.60;99.90;;;;;;5066297;28;20188;-81
2021/12/11 10:46:59;;;;;;;26.00;17.45;;;6.60;99.90;;;;;;5070471;28;21074;-81
2021/12/11 10:49:26;;;;;;;22.08;15.43;;;6.70;99.90;;;;;;5071882;28;20598;-81
2021/12/11 10:52:07;;;;;;;18.98;13.52;;;6.70;99.90;;;;;;5067161;28;20177;-80
2021/12/11 10:54:33;;;;;;;22.80;15.20;;;6.70;99.90;;;;;;5061295;28;20540;-81
2021/12/11 10:56:59;;;;;;;25.27;17.70;;;6.90;99.90;;;;;;5038716;28;20196;-80
2021/12/11 10:59:33;;;;;;;19.60;14.07;;;6.90;99.90;;;;;;5056412;28;20591;-81
2021/12/11 11:02:05;;;;;;;22.33;16.55;;;6.90;99.90;;;;;;5062202;28;20277;-81
2021/12/11 11:04:37;;;;;;;24.20;17.55;;;6.90;99.90;;;;;;5068974;28;20169;-81
2021/12/11 11:07:04;;;;;;;24.17;16.27;;;6.90;99.90;;;;;;5060398;28;20189;-80
2021/12/11 11:09:31;;;;;;;23.25;15.70;;;6.90;99.90;;;;;;5061579;28;20252;-82
2021/12/11 11:12:02;;;;;;;23.63;14.80;;;7.00;99.90;;;;;;5061379;28;20173;-80
2021/12/11 11:14:30;;;;;;;21.15;14.77;;;7.10;99.90;;;;;;5060314;28;20204;-82
2021/12/11 11:17:00;;;;;;;20.88;14.93;;;7.20;99.90;;;;;;5061507;28;20200;-81
2021/12/11 11:19:29;;;;;;;24.67;16.17;;;7.30;99.90;;;;;;5061270;28;20218;-81
2021/12/11 11:21:58;;;;;;;23.08;16.17;;;7.30;99.90;;;;;;5057403;28;20173;-80
2021/12/11 11:24:42;;;;;;;22.67;15.75;;;7.30;99.90;;;;;;5059576;28;20234;-81
2021/12/11 11:27:09;;;;;;;21.67;14.63;;;7.40;99.90;;;;;;5059082;28;20731;-80
2021/12/11 11:29:37;;;;;;;21.88;16.17;;;7.40;99.90;;;;;;5060573;28;20209;-80
2021/12/11 11:32:08;;;;;;;21.85;14.85;;;7.50;99.90;;;;;;5060918;28;20714;-79
2021/12/11 11:34:40;;;;;;;21.67;15.50;;;7.50;99.90;;;;;;5058990;28;20243;-80
2021/12/11 11:37:08;;;;;;;24.55;14.82;;;7.60;99.90;;;;;;5057333;28;20189;-80
2021/12/11 11:39:34;;;;;;;27.05;14.73;;;7.60;99.90;;;;;;5059106;28;20173;-80
2021/12/11 11:42:03;;;;;;;24.08;16.25;;;7.70;99.90;;;;;;5057604;28;20255;-80
2021/12/11 11:44:31;;;;;;;21.38;15.98;;;7.70;99.90;;;;;;5048021;28;20175;-80
2021/12/11 11:46:59;;;;;;;20.40;14.57;;;7.70;99.90;;;;;;5073594;28;20195;-80
2021/12/11 11:49:27;;;;;;;21.88;14.70;;;7.70;99.90;;;;;;5072650;28;20200;-80
2021/12/11 11:52:07;;;;;;;22.15;14.95;;;7.70;99.90;;;;;;5070865;28;20176;-80
2021/12/11 11:54:33;;;;;;;18.15;13.23;;;7.80;99.90;;;;;;5069333;28;20196;-81
2021/12/11 11:57:05;;;;;;;20.48;14.18;;;7.90;99.90;;;;;;5071451;28;20173;-80
2021/12/11 11:59:32;;;;;;;16.58;12.75;;;8.00;99.90;;;;;;5072466;28;20181;-81
2021/12/11 12:02:03;;;;;;;14.63;11.15;;;8.10;99.90;;;;;;5073475;28;20168;-82
2021/12/11 12:04:31;;;;;;;20.27;12.50;;;8.20;99.90;;;;;;5073610;28;20184;-81
2021/12/11 12:07:00;;;;;;;22.52;11.80;;;8.30;99.90;;;;;;5071384;28;20197;-81
2021/12/11 12:09:27;;;;;;;20.30;12.52;;;8.40;99.90;;;;;;5068698;28;20223;-80
2021/12/11 12:11:55;;;;;;;18.88;12.15;;;8.50;99.90;;;;;;5069223;28;20184;-81
2021/12/11 12:14:25;;;;;;;19.27;12.40;;;8.50;99.90;;;;;;5069173;28;20232;-81
2021/12/11 12:16:52;;;;;;;18.75;13.30;;;8.60;99.90;;;;;;5070480;28;20193;-80
2021/12/11 12:19:20;;;;;;;19.65;13.38;;;8.60;99.90;;;;;;5067841;28;20177;-81
2021/12/11 12:21:50;;;;;;;17.50;13.50;;;8.70;99.90;;;;;;5069942;28;20177;-81
2021/12/11 12:24:20;;;;;;;17.38;13.48;;;8.70;99.90;;;;;;5072977;28;20161;-81
2021/12/11 12:26:45;;;;;;;19.33;13.18;;;8.80;99.90;;;;;;5074351;28;20246;-81
2021/12/11 12:29:14;;;;;;;21.00;14.33;;;8.80;99.90;;;;;;5074473;28;20173;-81
2021/12/11 12:31:51;;;;;;;17.63;13.57;;;8.90;99.90;;;;;;5074758;28;20226;-81
2021/12/11 12:34:19;;;;;;;14.82;10.70;;;8.90;99.90;;;;;;5060653;28;20179;-81
2021/12/11 12:36:45;;;;;;;15.50;12.07;;;9.00;99.90;;;;;;5063776;28;20219;-81
2021/12/11 12:39:14;;;;;;;20.08;9.23;;;9.00;99.90;;;;;;5024184;28;20168;-79
2021/12/11 12:41:57;;;;;;;9.57;6.60;;;9.10;99.90;;;;;;5059006;28;20185;-81
2021/12/11 12:44:25;;;;;;;8.73;5.95;;;9.10;99.90;;;;;;5057539;28;20169;-79
2021/12/11 12:47:13;;;;;;;9.63;7.20;;;9.10;99.90;;;;;;5059221;28;20262;-80
2021/12/11 12:49:45;;;;;;;14.05;7.05;;;9.20;99.90;;;;;;5071854;28;20197;-79
2021/12/11 12:52:29;;;;;;;8.77;6.95;;;9.20;99.90;;;;;;5077357;28;20200;-80
2021/12/11 12:54:55;;;;;;;13.05;6.35;;;9.20;99.90;;;;;;5068355;28;20272;-80
2021/12/11 12:57:26;;;;;;;8.98;6.20;;;9.20;99.90;;;;;;5060445;28;20548;-81
2021/12/11 12:59:58;;;;;;;9.10;5.20;;;9.20;99.90;;;;;;5060509;28;20153;-80
2021/12/11 13:02:26;;;;;;;7.55;5.18;;;9.20;99.90;;;;;;5068200;28;20256;-80
2021/12/11 13:05:01;;;;;;;9.27;4.60;;;9.20;99.90;;;;;;5066958;28;20157;-80
2021/12/11 13:07:27;;;;;;;11.25;5.55;;;9.20;99.90;;;;;;5064506;28;20184;-80
2021/12/11 13:09:57;;;;;;;10.53;4.53;;;9.30;99.90;;;;;;5065677;28;20193;-80